createdAt,value
2019-03-02T00:01:35.349Z,9.43
2019-03-02T00:06:20.168Z,8.67
2019-03-02T00:11:04.903Z,9.93
2019-03-02T00:15:49.473Z,9.30
2019-03-02T00:20:34.007Z,9.40
2019-03-02T00:25:18.752Z,9.23
2019-03-02T00:30:03.585Z,9.63
2019-03-02T00:34:48.179Z,8.03
2019-03-02T00:39:32.804Z,8.77
2019-03-02T00:44:17.561Z,8.77
2019-03-02T00:49:01.987Z,7.87
2019-03-02T00:53:46.818Z,8.70
2019-03-02T00:58:31.370Z,8.03
2019-03-02T01:03:16.921Z,8.47
2019-03-02T01:08:01.593Z,8.30
2019-03-02T01:12:46.165Z,8.57
2019-03-02T01:17:31.664Z,8.27
2019-03-02T01:22:16.594Z,7.97
2019-03-02T01:27:02.187Z,8.10
2019-03-02T01:31:46.929Z,7.87
2019-03-02T01:36:32.254Z,7.93
2019-03-02T01:41:18.860Z,7.13
2019-03-02T01:46:04.591Z,6.67
2019-03-02T01:50:49.368Z,7.10
2019-03-02T01:55:33.949Z,7.33
2019-03-02T02:00:22.695Z,7.50
2019-03-02T02:05:07.494Z,7.47
2019-03-02T02:09:52.004Z,7.60
2019-03-02T02:14:36.541Z,6.47
2019-03-02T02:19:21.047Z,6.63
2019-03-02T02:24:06.260Z,7.13
2019-03-02T02:28:50.868Z,7.37
2019-03-02T02:33:42.455Z,7.13
2019-03-02T02:38:21.691Z,7.90
2019-03-02T02:43:06.244Z,7.90
2019-03-02T02:47:53.742Z,8.60
2019-03-02T02:52:37.064Z,8.23
2019-03-02T02:57:21.865Z,9.47
2019-03-02T03:02:10.796Z,9.07
2019-03-02T03:06:53.598Z,9.50
2019-03-02T03:11:43.654Z,9.70
2019-03-02T03:16:24.539Z,9.83
2019-03-02T03:21:09.137Z,10.07
2019-03-02T03:25:57.096Z,10.10
2019-03-02T03:30:40.343Z,10.53
2019-03-02T03:35:24.761Z,9.53
2019-03-02T03:40:09.758Z,10.87
2019-03-02T03:44:54.363Z,10.53
2019-03-02T03:49:38.927Z,11.20
2019-03-02T03:54:23.527Z,11.20
2019-03-02T03:59:08.071Z,10.13
2019-03-02T04:03:53.127Z,11.40
2019-03-02T04:08:37.647Z,12.23
2019-03-02T04:13:22.152Z,11.33
2019-03-02T04:18:55.278Z,11.57
2019-03-02T04:23:37.162Z,10.93
2019-03-02T04:28:21.677Z,9.80
2019-03-02T04:33:07.580Z,11.73
2019-03-02T04:37:56.530Z,13.40
2019-03-02T04:42:38.753Z,14.87
2019-03-02T04:47:26.222Z,16.17
2019-03-02T04:52:11.535Z,15.33
2019-03-02T04:56:58.897Z,19.03
2019-03-02T05:01:43.654Z,17.67
2019-03-02T05:06:28.750Z,16.77
2019-03-02T05:11:13.389Z,17.40
2019-03-02T05:15:58.090Z,18.27
2019-03-02T05:20:42.689Z,19.20
2019-03-02T05:25:27.343Z,20.10
2019-03-02T05:30:12.064Z,19.40
2019-03-02T05:34:56.717Z,22.00
2019-03-02T05:39:41.271Z,21.33
2019-03-02T05:44:25.883Z,20.67
2019-03-02T05:49:10.503Z,22.13
2019-03-02T05:53:55.077Z,21.77
2019-03-02T05:58:39.669Z,22.27
2019-03-02T06:03:24.258Z,22.57
2019-03-02T06:08:08.799Z,22.83
2019-03-02T06:12:53.342Z,22.73
2019-03-02T06:17:38.093Z,21.87
2019-03-02T06:22:22.783Z,20.67
2019-03-02T06:27:07.822Z,21.63
2019-03-02T06:31:54.120Z,20.90
2019-03-02T06:36:40.925Z,21.03
2019-03-02T06:41:25.759Z,20.57
2019-03-02T06:46:10.350Z,19.33
2019-03-02T06:50:54.901Z,19.80
2019-03-02T06:55:39.459Z,20.63
2019-03-02T07:00:24.323Z,18.63
2019-03-02T07:05:08.969Z,17.70
2019-03-02T07:09:53.498Z,17.40
2019-03-02T07:14:38.077Z,18.13
2019-03-02T07:19:29.363Z,17.27
2019-03-02T07:24:13.925Z,17.67
2019-03-02T07:28:58.578Z,17.13
2019-03-02T07:33:43.072Z,16.37
2019-03-02T07:38:27.594Z,15.63
2019-03-02T07:43:12.125Z,15.60
2019-03-02T07:48:00.311Z,15.47
2019-03-02T07:52:43.103Z,15.60
2019-03-02T07:57:27.773Z,16.27
2019-03-02T08:02:12.347Z,14.97
2019-03-02T08:06:57.986Z,14.73
2019-03-02T08:11:45.504Z,14.70
2019-03-02T08:16:29.325Z,14.67
2019-03-02T08:21:13.868Z,14.87
2019-03-02T08:25:58.492Z,14.93
2019-03-02T08:30:43.010Z,15.03
2019-03-02T08:35:27.712Z,13.53
2019-03-02T08:40:13.333Z,14.87
2019-03-02T08:44:57.829Z,14.13
2019-03-02T08:49:42.841Z,13.57
2019-03-02T08:54:27.479Z,14.23
2019-03-02T08:59:11.988Z,13.43
2019-03-02T09:03:56.524Z,13.63
2019-03-02T09:08:41.212Z,13.67
2019-03-02T09:13:25.870Z,13.37
2019-03-02T09:18:10.532Z,13.17
2019-03-02T09:22:56.270Z,12.20
2019-03-02T09:27:41.440Z,12.73
2019-03-02T09:32:26.248Z,12.73
2019-03-02T09:37:10.858Z,13.50
2019-03-02T09:41:58.015Z,13.47
2019-03-02T09:46:41.714Z,13.27
2019-03-02T09:51:26.328Z,13.20
2019-03-02T09:56:11.034Z,12.17
2019-03-02T10:00:56.795Z,12.43
2019-03-02T10:05:41.849Z,14.00
2019-03-02T10:10:28.931Z,13.30
2019-03-02T10:15:15.566Z,13.93
2019-03-02T10:20:00.998Z,14.10
2019-03-02T10:24:49.722Z,13.93
2019-03-02T10:29:32.659Z,14.40
2019-03-02T10:34:17.311Z,13.93
2019-03-02T10:39:01.975Z,12.80
2019-03-02T10:43:46.706Z,13.13
2019-03-02T10:48:31.214Z,11.97
2019-03-02T10:53:15.814Z,13.40
2019-03-02T10:58:02.356Z,12.63
2019-03-02T11:02:46.704Z,13.83
2019-03-02T11:07:52.918Z,12.70
2019-03-02T11:13:05.541Z,13.20
2019-03-02T11:18:09.008Z,14.47
2019-03-02T11:23:15.830Z,13.40
2019-03-02T11:28:20.484Z,14.17
2019-03-02T11:33:36.124Z,14.47
2019-03-02T11:38:45.383Z,14.20
2019-03-02T11:43:48.547Z,14.77
2019-03-02T11:48:58.560Z,14.47
2019-03-02T11:54:04.809Z,14.90
2019-03-02T11:59:09.291Z,14.53
2019-03-02T12:04:21.291Z,12.77
2019-03-02T12:09:25.434Z,13.97
2019-03-02T12:14:26.105Z,11.77
2019-03-02T12:19:38.400Z,12.20
2019-03-02T12:24:59.938Z,10.37
2019-03-02T12:30:02.079Z,10.47
2019-03-02T12:34:54.945Z,11.00
2019-03-02T12:40:02.917Z,10.07
2019-03-02T12:44:59.023Z,10.47
2019-03-02T12:49:54.766Z,10.00
2019-03-02T12:54:59.028Z,10.13
2019-03-02T12:59:52.073Z,9.40
2019-03-02T13:04:55.537Z,10.17
2019-03-02T13:09:53.147Z,9.97
2019-03-02T13:14:54.893Z,9.97
2019-03-02T13:20:02.758Z,9.37
2019-03-02T13:25:20.332Z,10.00
2019-03-02T13:30:30.458Z,9.47
2019-03-02T13:35:23.382Z,10.30
2019-03-02T13:40:33.578Z,10.03
2019-03-02T13:45:24.220Z,10.87
2019-03-02T13:50:26.160Z,9.93
2019-03-02T13:55:38.733Z,9.37
2019-03-02T14:00:43.862Z,9.90
2019-03-02T14:05:51.829Z,10.57
2019-03-02T14:10:57.322Z,9.60
2019-03-02T14:16:05.076Z,9.57
2019-03-02T14:21:15.902Z,11.13
2019-03-02T14:26:36.807Z,9.93
2019-03-02T14:31:54.883Z,9.30
2019-03-02T14:37:11.184Z,9.50
2019-03-02T14:42:24.474Z,10.43
2019-03-02T14:47:14.363Z,9.77
2019-03-02T14:52:14.874Z,10.00
2019-03-02T14:57:25.834Z,9.63
2019-03-02T15:02:31.689Z,9.60
2019-03-02T15:07:33.990Z,10.30
2019-03-02T15:12:36.050Z,9.23
2019-03-02T15:17:34.514Z,11.93
2019-03-02T15:22:47.347Z,12.90
2019-03-02T15:27:41.375Z,14.77
2019-03-02T15:32:36.341Z,10.47
2019-03-02T15:37:45.888Z,11.40
2019-03-02T15:42:45.616Z,10.50
2019-03-02T15:47:52.772Z,11.40
2019-03-02T15:52:59.246Z,11.23
2019-03-02T15:57:59.054Z,11.90
2019-03-02T16:02:49.789Z,11.60
2019-03-02T16:07:51.976Z,12.63
2019-03-02T16:12:48.051Z,11.10
2019-03-02T16:17:45.155Z,12.33
2019-03-02T16:22:37.296Z,11.67
2019-03-02T16:27:43.754Z,10.63
2019-03-02T16:32:51.936Z,11.67
2019-03-02T16:38:01.626Z,12.00
2019-03-02T16:43:08.247Z,11.87
2019-03-02T16:48:30.041Z,11.77
2019-03-02T16:53:40.020Z,15.90
2019-03-02T16:58:34.279Z,11.43
2019-03-02T17:03:39.042Z,11.90
2019-03-02T17:08:42.129Z,12.40
2019-03-02T17:13:45.578Z,13.80
2019-03-02T17:18:51.992Z,10.70
2019-03-02T17:23:58.590Z,10.90
2019-03-02T17:29:00.837Z,10.50
2019-03-02T17:33:59.488Z,10.53
2019-03-02T17:39:02.327Z,10.60
2019-03-02T17:44:12.120Z,10.63
2019-03-02T17:49:28.479Z,16.13
2019-03-02T17:54:18.888Z,12.20
2019-03-02T17:59:28.424Z,13.17
2019-03-02T18:04:39.277Z,13.67
2019-03-02T18:09:42.699Z,12.23
2019-03-02T18:14:49.827Z,11.97
2019-03-02T18:19:34.733Z,10.73
2019-03-02T18:24:19.457Z,12.23
2019-03-02T18:29:04.008Z,15.47
2019-03-02T18:33:56.191Z,12.13
2019-03-02T18:38:44.460Z,13.20
2019-03-02T18:43:27.254Z,12.27
2019-03-02T18:48:26.248Z,11.23
2019-03-02T18:53:10.756Z,12.23
2019-03-02T18:57:55.415Z,11.83
2019-03-02T19:02:40.017Z,12.87
2019-03-02T19:07:24.876Z,12.27
2019-03-02T19:12:10.944Z,12.47
2019-03-02T19:16:55.680Z,12.73
2019-03-02T19:21:40.375Z,13.13
2019-03-02T19:26:25.357Z,13.77
2019-03-02T19:31:09.939Z,13.10
2019-03-02T19:35:54.558Z,15.30
2019-03-02T19:40:39.216Z,14.23
2019-03-02T19:45:24.156Z,14.07
2019-03-02T19:50:12.042Z,14.20
2019-03-02T19:54:56.934Z,13.27
2019-03-02T20:01:07.529Z,14.90
2019-03-02T20:06:17.515Z,14.30
2019-03-02T20:11:02.248Z,13.70
2019-03-02T20:15:47.167Z,15.17
2019-03-02T20:20:31.816Z,16.13
2019-03-02T20:25:16.697Z,14.67
2019-03-02T20:30:01.265Z,16.00
2019-03-02T20:34:46.011Z,16.20
2019-03-02T20:39:30.605Z,14.87
2019-03-02T20:44:15.144Z,16.67
2019-03-02T20:48:59.774Z,16.27
2019-03-02T20:53:44.462Z,16.10
2019-03-02T20:58:29.128Z,18.00
2019-03-02T21:03:13.740Z,18.03
2019-03-02T21:08:01.588Z,16.70
2019-03-02T21:12:46.151Z,17.33
2019-03-02T21:17:30.717Z,16.73
2019-03-02T21:22:15.514Z,16.47
2019-03-02T21:27:00.322Z,15.67
2019-03-02T21:31:45.122Z,17.63
2019-03-02T21:36:30.076Z,17.63
2019-03-02T21:41:14.631Z,16.33
2019-03-02T21:45:59.239Z,16.50
2019-03-02T21:50:44.242Z,16.13
2019-03-02T21:55:28.825Z,16.47
2019-03-02T22:00:16.061Z,17.80
2019-03-02T22:05:00.663Z,18.20
2019-03-02T22:09:45.295Z,17.63
2019-03-02T22:14:29.883Z,17.57
2019-03-02T22:19:14.441Z,17.47
2019-03-02T22:23:58.971Z,18.77
2019-03-02T22:28:43.598Z,19.00
2019-03-02T22:33:28.963Z,18.93
2019-03-02T22:38:13.657Z,18.97
2019-03-02T22:42:58.532Z,18.37
2019-03-02T22:47:43.269Z,18.77
2019-03-02T22:52:27.804Z,17.73
2019-03-02T22:57:12.436Z,17.93
2019-03-02T23:02:19.888Z,18.40
2019-03-02T23:07:04.523Z,18.60
2019-03-02T23:11:49.097Z,19.17
2019-03-02T23:16:33.653Z,18.40
2019-03-02T23:21:19.030Z,18.57
2019-03-02T23:26:03.646Z,17.83
2019-03-02T23:30:48.172Z,18.27
2019-03-02T23:35:32.742Z,18.37
2019-03-02T23:40:17.389Z,18.53
2019-03-02T23:45:02.003Z,17.53
2019-03-02T23:49:46.579Z,17.13
2019-03-02T23:54:31.133Z,18.20
2019-03-02T23:59:15.648Z,18.17
